createdAt,value
2019-03-03T00:00:23.132Z,10.35
2019-03-03T00:01:23.188Z,10.38
2019-03-03T00:02:23.249Z,10.35
2019-03-03T00:03:23.312Z,10.35
2019-03-03T00:04:23.380Z,10.38
2019-03-03T00:05:23.444Z,10.34
2019-03-03T00:06:23.496Z,10.31
2019-03-03T00:07:23.557Z,10.37
2019-03-03T00:08:24.655Z,10.37
2019-03-03T00:09:23.689Z,10.46
2019-03-03T00:10:23.749Z,10.46
2019-03-03T00:11:23.805Z,10.59
2019-03-03T00:12:23.869Z,10.60
2019-03-03T00:13:23.929Z,10.64
2019-03-03T00:14:23.997Z,10.64
2019-03-03T00:15:24.061Z,10.63
2019-03-03T00:16:24.113Z,10.68
2019-03-03T00:17:24.178Z,10.61
2019-03-03T00:18:24.237Z,10.63
2019-03-03T00:19:24.481Z,10.69
2019-03-03T00:20:24.361Z,10.69
2019-03-03T00:21:24.421Z,10.68
2019-03-03T00:22:24.483Z,10.68
2019-03-03T00:23:24.546Z,10.69
2019-03-03T00:24:24.617Z,10.74
2019-03-03T00:25:24.682Z,10.67
2019-03-03T00:26:24.730Z,10.71
2019-03-03T00:27:24.798Z,10.63
2019-03-03T00:28:24.854Z,10.69
2019-03-03T00:29:24.922Z,10.63
2019-03-03T00:30:24.990Z,10.61
2019-03-03T00:31:25.040Z,10.60
2019-03-03T00:32:25.102Z,10.60
2019-03-03T00:33:25.162Z,10.63
2019-03-03T00:34:25.327Z,10.59
2019-03-03T00:35:25.286Z,10.64
2019-03-03T00:36:25.350Z,10.63
2019-03-03T00:37:25.410Z,10.71
2019-03-03T00:38:25.470Z,10.75
2019-03-03T00:39:25.539Z,10.71
2019-03-03T00:40:25.602Z,10.67
2019-03-03T00:41:25.655Z,10.60
2019-03-03T00:42:25.718Z,10.69
2019-03-03T00:43:25.779Z,10.59
2019-03-03T00:44:25.847Z,10.64
2019-03-03T00:45:25.910Z,10.71
2019-03-03T00:46:25.967Z,10.64
2019-03-03T00:47:26.027Z,10.56
2019-03-03T00:48:26.087Z,10.68
2019-03-03T00:49:26.167Z,10.61
2019-03-03T00:50:26.211Z,10.63
2019-03-03T00:51:26.271Z,10.61
2019-03-03T00:52:26.335Z,10.56
2019-03-03T00:53:26.395Z,10.61
2019-03-03T00:54:26.463Z,10.60
2019-03-03T00:55:26.527Z,10.69
2019-03-03T00:56:26.581Z,10.59
2019-03-03T00:57:26.645Z,10.61
2019-03-03T00:58:26.718Z,10.59
2019-03-03T00:59:26.771Z,10.51
2019-03-03T01:00:26.836Z,10.56
2019-03-03T01:01:26.887Z,10.57
2019-03-03T01:02:26.947Z,10.59
2019-03-03T01:03:27.012Z,10.49
2019-03-03T01:04:27.176Z,10.49
2019-03-03T01:05:27.135Z,10.49
2019-03-03T01:06:27.200Z,10.51
2019-03-03T01:07:27.259Z,10.56
2019-03-03T01:08:27.320Z,10.68
2019-03-03T01:09:27.389Z,10.68
2019-03-03T01:10:27.448Z,10.61
2019-03-03T01:11:27.506Z,10.61
2019-03-03T01:12:27.568Z,10.61
2019-03-03T01:13:27.634Z,10.63
2019-03-03T01:14:27.698Z,10.59
2019-03-03T01:15:27.769Z,10.60
2019-03-03T01:16:27.812Z,10.61
2019-03-03T01:17:27.878Z,10.60
2019-03-03T01:18:27.939Z,10.60
2019-03-03T01:19:28.004Z,10.63
2019-03-03T01:20:28.066Z,10.60
2019-03-03T01:21:28.120Z,10.49
2019-03-03T01:22:28.181Z,10.67
2019-03-03T01:23:28.244Z,10.59
2019-03-03T01:24:28.401Z,10.71
2019-03-03T01:25:28.369Z,10.69
2019-03-03T01:26:28.431Z,10.72
2019-03-03T01:27:28.492Z,10.69
2019-03-03T01:28:28.553Z,10.79
2019-03-03T01:29:28.625Z,10.78
2019-03-03T01:30:28.683Z,10.81
2019-03-03T01:31:28.741Z,10.84
2019-03-03T01:32:28.806Z,10.76
2019-03-03T01:33:28.861Z,10.78
2019-03-03T01:34:28.929Z,10.78
2019-03-03T01:35:28.989Z,10.86
2019-03-03T01:36:29.045Z,10.92
2019-03-03T01:37:29.105Z,10.92
2019-03-03T01:38:29.171Z,10.86
2019-03-03T01:39:29.229Z,10.89
2019-03-03T01:40:29.317Z,10.93
2019-03-03T01:41:29.353Z,10.87
2019-03-03T01:42:29.414Z,10.94
2019-03-03T01:43:29.477Z,10.92
2019-03-03T01:44:29.538Z,10.92
2019-03-03T01:45:29.610Z,10.86
2019-03-03T01:46:29.670Z,10.94
2019-03-03T01:47:29.721Z,10.78
2019-03-03T01:48:29.785Z,10.75
2019-03-03T01:49:29.846Z,10.71
2019-03-03T01:50:29.915Z,10.61
2019-03-03T01:51:29.974Z,10.63
2019-03-03T01:52:30.030Z,10.57
2019-03-03T01:53:30.094Z,10.56
2019-03-03T01:54:30.154Z,10.51
2019-03-03T01:55:30.239Z,10.54
2019-03-03T01:56:30.278Z,10.57
2019-03-03T01:57:30.338Z,10.53
2019-03-03T01:58:30.414Z,10.46
2019-03-03T01:59:30.465Z,10.48
2019-03-03T02:00:30.535Z,10.49
2019-03-03T02:01:30.596Z,10.41
2019-03-03T02:02:30.647Z,10.37
2019-03-03T02:03:30.711Z,10.38
2019-03-03T02:04:30.771Z,10.46
2019-03-03T02:05:30.843Z,10.44
2019-03-03T02:06:30.905Z,10.42
2019-03-03T02:07:30.955Z,10.38
2019-03-03T02:08:31.019Z,10.42
2019-03-03T02:09:31.079Z,10.37
2019-03-03T02:10:31.235Z,10.42
2019-03-03T02:11:31.203Z,10.35
2019-03-03T02:12:31.267Z,10.41
2019-03-03T02:13:31.327Z,10.33
2019-03-03T02:14:31.389Z,10.34
2019-03-03T02:15:31.460Z,10.48
2019-03-03T02:16:31.519Z,10.48
2019-03-03T02:17:31.576Z,10.44
2019-03-03T02:18:31.635Z,10.42
2019-03-03T02:19:31.696Z,10.35
2019-03-03T02:20:31.767Z,10.37
2019-03-03T02:21:31.827Z,10.44
2019-03-03T02:22:31.884Z,10.35
2019-03-03T02:23:31.944Z,10.38
2019-03-03T02:24:32.008Z,10.34
2019-03-03T02:25:32.088Z,10.34
2019-03-03T02:26:32.136Z,10.40
2019-03-03T02:27:32.192Z,10.40
2019-03-03T02:28:32.252Z,10.40
2019-03-03T02:29:32.316Z,10.40
2019-03-03T02:30:32.385Z,10.40
2019-03-03T02:31:32.445Z,10.31
2019-03-03T02:32:32.501Z,10.38
2019-03-03T02:33:32.570Z,10.31
2019-03-03T02:34:32.624Z,10.31
2019-03-03T02:35:32.693Z,10.31
2019-03-03T02:36:32.754Z,10.34
2019-03-03T02:37:32.809Z,10.34
2019-03-03T02:38:32.870Z,10.22
2019-03-03T02:39:32.930Z,10.22
2019-03-03T02:40:33.001Z,10.26
2019-03-03T02:41:33.061Z,10.26
2019-03-03T02:42:33.113Z,10.16
2019-03-03T02:43:33.178Z,10.15
2019-03-03T02:44:33.237Z,10.07
2019-03-03T02:45:33.302Z,10.23
2019-03-03T02:46:33.461Z,10.17
2019-03-03T02:47:33.422Z,10.20
2019-03-03T02:48:33.485Z,10.23
2019-03-03T02:49:33.546Z,10.12
2019-03-03T02:50:33.611Z,10.15
2019-03-03T02:51:33.679Z,10.23
2019-03-03T02:52:33.750Z,10.13
2019-03-03T02:53:33.793Z,10.09
2019-03-03T02:54:33.895Z,10.13
2019-03-03T02:55:33.913Z,10.07
2019-03-03T02:56:33.981Z,10.17
2019-03-03T02:57:34.054Z,10.13
2019-03-03T02:58:34.100Z,10.09
2019-03-03T02:59:34.165Z,10.22
2019-03-03T03:00:34.225Z,10.13
2019-03-03T03:01:34.428Z,10.19
2019-03-03T03:02:34.347Z,10.13
2019-03-03T03:03:34.406Z,10.17
2019-03-03T03:04:34.474Z,10.20
2019-03-03T03:05:34.538Z,10.23
2019-03-03T03:06:34.607Z,10.28
2019-03-03T03:07:34.667Z,10.23
2019-03-03T03:08:34.715Z,10.22
2019-03-03T03:09:34.778Z,10.20
2019-03-03T03:10:34.842Z,10.23
2019-03-03T03:11:34.907Z,10.31
2019-03-03T03:12:34.971Z,10.26
2019-03-03T03:13:35.025Z,10.20
2019-03-03T03:14:35.086Z,10.23
2019-03-03T03:15:35.147Z,10.23
2019-03-03T03:16:35.328Z,10.20
2019-03-03T03:17:35.272Z,10.16
2019-03-03T03:18:35.332Z,10.25
2019-03-03T03:19:35.395Z,10.19
2019-03-03T03:20:35.456Z,10.26
2019-03-03T03:21:35.528Z,10.23
2019-03-03T03:22:35.593Z,10.25
2019-03-03T03:23:35.640Z,10.30
2019-03-03T03:24:35.700Z,10.28
2019-03-03T03:25:35.767Z,10.23
2019-03-03T03:26:35.832Z,10.37
2019-03-03T03:27:35.906Z,10.33
2019-03-03T03:28:35.948Z,10.34
2019-03-03T03:29:36.010Z,10.37
2019-03-03T03:30:36.075Z,10.35
2019-03-03T03:31:36.228Z,10.31
2019-03-03T03:32:36.192Z,10.37
2019-03-03T03:33:36.258Z,10.35
2019-03-03T03:34:36.453Z,10.31
2019-03-03T03:35:36.385Z,10.33
2019-03-03T03:36:36.947Z,10.42
2019-03-03T03:37:36.508Z,10.42
2019-03-03T03:38:36.564Z,10.40
2019-03-03T03:39:36.625Z,10.40
2019-03-03T03:40:36.687Z,10.35
2019-03-03T03:41:36.757Z,10.40
2019-03-03T03:42:36.817Z,10.38
2019-03-03T03:43:36.869Z,10.35
2019-03-03T03:44:36.942Z,10.49
2019-03-03T03:45:36.992Z,10.46
2019-03-03T03:46:37.052Z,10.57
2019-03-03T03:47:37.140Z,10.51
2019-03-03T03:48:37.178Z,10.56
2019-03-03T03:49:37.240Z,10.56
2019-03-03T03:50:37.300Z,10.53
2019-03-03T03:51:37.364Z,10.60
2019-03-03T03:52:37.433Z,10.61
2019-03-03T03:53:37.493Z,10.54
2019-03-03T03:54:37.546Z,10.51
2019-03-03T03:55:37.609Z,10.51
2019-03-03T03:56:37.669Z,10.51
2019-03-03T03:57:37.753Z,10.60
2019-03-03T03:58:37.803Z,10.59
2019-03-03T03:59:37.854Z,10.54
2019-03-03T04:00:37.916Z,10.53
2019-03-03T04:01:37.978Z,10.49
2019-03-03T04:02:38.046Z,10.53
2019-03-03T04:03:38.105Z,10.59
2019-03-03T04:04:38.166Z,10.60
2019-03-03T04:05:38.225Z,10.54
2019-03-03T04:06:38.286Z,10.63
2019-03-03T04:07:38.373Z,10.64
2019-03-03T04:08:38.410Z,10.59
2019-03-03T04:09:38.506Z,10.60
2019-03-03T04:10:38.529Z,10.49
2019-03-03T04:11:38.594Z,10.56
2019-03-03T04:12:38.664Z,10.56
2019-03-03T04:13:38.722Z,10.48
2019-03-03T04:14:38.779Z,10.56
2019-03-03T04:15:38.839Z,10.49
2019-03-03T04:16:38.902Z,10.53
2019-03-03T04:17:38.970Z,10.60
2019-03-03T04:18:39.838Z,10.54
2019-03-03T04:19:39.089Z,10.49
2019-03-03T04:20:39.147Z,10.59
2019-03-03T04:21:39.211Z,10.51
2019-03-03T04:22:39.298Z,10.53
2019-03-03T04:23:39.334Z,10.56
2019-03-03T04:24:39.398Z,10.48
2019-03-03T04:25:39.459Z,10.51
2019-03-03T04:26:39.524Z,10.53
2019-03-03T04:27:39.586Z,10.48
2019-03-03T04:28:39.646Z,10.46
2019-03-03T04:29:39.702Z,10.49
2019-03-03T04:30:39.763Z,10.48
2019-03-03T04:31:39.827Z,10.44
2019-03-03T04:32:39.895Z,10.41
2019-03-03T04:33:39.959Z,10.41
2019-03-03T04:34:40.014Z,10.42
2019-03-03T04:35:40.075Z,10.46
2019-03-03T04:36:40.135Z,10.46
2019-03-03T04:37:40.219Z,10.41
2019-03-03T04:38:40.259Z,10.49
2019-03-03T04:39:40.319Z,10.51
2019-03-03T04:40:40.383Z,10.48
2019-03-03T04:41:40.443Z,10.38
2019-03-03T04:42:40.515Z,10.35
2019-03-03T04:43:40.579Z,10.44
2019-03-03T04:44:40.627Z,10.51
2019-03-03T04:45:40.695Z,10.49
2019-03-03T04:46:40.754Z,10.48
2019-03-03T04:47:40.819Z,10.51
2019-03-03T04:48:40.883Z,10.49
2019-03-03T04:49:40.940Z,10.46
2019-03-03T04:50:40.999Z,10.49
2019-03-03T04:51:41.059Z,10.49
2019-03-03T04:52:41.124Z,10.51
2019-03-03T04:53:41.279Z,10.60
2019-03-03T04:54:41.243Z,10.54
2019-03-03T04:55:41.307Z,10.54
2019-03-03T04:56:41.367Z,10.51
2019-03-03T04:57:41.432Z,10.51
2019-03-03T04:58:41.500Z,10.54
2019-03-03T04:59:41.560Z,10.51
2019-03-03T05:00:41.616Z,10.48
2019-03-03T05:01:41.679Z,10.63
2019-03-03T05:02:41.740Z,10.51
2019-03-03T05:03:41.808Z,10.56
2019-03-03T05:04:41.872Z,10.53
2019-03-03T05:05:41.924Z,10.68
2019-03-03T05:06:41.984Z,10.67
2019-03-03T05:07:42.090Z,10.63
2019-03-03T05:08:42.132Z,10.69
2019-03-03T05:09:42.172Z,10.61
2019-03-03T05:10:42.233Z,10.60
2019-03-03T05:11:42.297Z,10.59
2019-03-03T05:12:42.357Z,10.67
2019-03-03T05:13:42.425Z,10.72
2019-03-03T05:14:42.488Z,10.72
2019-03-03T05:15:42.545Z,10.68
2019-03-03T05:16:42.604Z,10.72
2019-03-03T05:17:42.664Z,10.72
2019-03-03T05:18:42.733Z,10.72
2019-03-03T05:19:42.796Z,10.68
2019-03-03T05:20:42.853Z,10.71
2019-03-03T05:21:42.913Z,10.63
2019-03-03T05:22:42.976Z,10.63
2019-03-03T05:23:43.041Z,10.67
2019-03-03T05:24:43.109Z,10.75
2019-03-03T05:25:43.163Z,10.69
2019-03-03T05:26:43.221Z,10.75
2019-03-03T05:27:43.281Z,10.74
2019-03-03T05:28:43.358Z,10.68
2019-03-03T05:29:43.413Z,10.75
2019-03-03T05:30:43.470Z,10.72
2019-03-03T05:31:43.529Z,10.71
2019-03-03T05:32:43.594Z,10.75
2019-03-03T05:33:43.661Z,10.75
2019-03-03T05:34:43.717Z,10.69
2019-03-03T05:35:43.778Z,10.76
2019-03-03T05:36:43.837Z,10.76
2019-03-03T05:37:43.902Z,10.76
2019-03-03T05:38:43.969Z,10.76
2019-03-03T05:39:44.034Z,10.76
2019-03-03T05:40:44.086Z,10.79
2019-03-03T05:41:44.150Z,10.84
2019-03-03T05:42:44.211Z,10.89
2019-03-03T05:43:44.379Z,10.86
2019-03-03T05:44:44.334Z,10.90
2019-03-03T05:45:44.394Z,10.92
2019-03-03T05:46:44.460Z,10.87
2019-03-03T05:47:44.518Z,10.92
2019-03-03T05:48:44.590Z,10.93
2019-03-03T05:49:44.652Z,10.94
2019-03-03T05:50:44.706Z,10.93
2019-03-03T05:51:44.767Z,10.94
2019-03-03T05:52:44.831Z,10.92
2019-03-03T05:53:44.900Z,10.92
2019-03-03T05:54:44.959Z,10.86
2019-03-03T05:55:45.015Z,10.92
2019-03-03T05:56:45.074Z,10.94
2019-03-03T05:57:45.139Z,10.96
2019-03-03T05:58:45.452Z,10.99
2019-03-03T05:59:45.263Z,10.96
2019-03-03T06:00:45.322Z,11.12
2019-03-03T06:01:45.387Z,11.10
2019-03-03T06:02:45.447Z,11.10
2019-03-03T06:03:45.515Z,11.15
2019-03-03T06:04:45.580Z,11.15
2019-03-03T06:05:47.423Z,11.17
2019-03-03T06:06:45.695Z,11.12
2019-03-03T06:07:45.755Z,11.15
2019-03-03T06:08:45.833Z,11.12
2019-03-03T06:09:45.887Z,11.12
2019-03-03T06:10:45.944Z,11.11
2019-03-03T06:11:46.003Z,11.19
2019-03-03T06:12:46.067Z,11.12
2019-03-03T06:13:46.220Z,11.10
2019-03-03T06:14:46.192Z,11.14
2019-03-03T06:15:46.252Z,11.22
2019-03-03T06:16:46.315Z,11.15
2019-03-03T06:17:46.376Z,11.18
2019-03-03T06:18:46.443Z,11.17
2019-03-03T06:19:46.507Z,11.27
2019-03-03T06:20:46.560Z,11.14
2019-03-03T06:21:46.624Z,11.15
2019-03-03T06:22:46.686Z,11.17
2019-03-03T06:23:46.751Z,11.15
2019-03-03T06:24:46.821Z,11.18
2019-03-03T06:25:46.872Z,11.14
2019-03-03T06:26:46.933Z,11.11
2019-03-03T06:27:46.996Z,11.18
2019-03-03T06:28:47.064Z,11.12
2019-03-03T06:29:47.124Z,11.07
2019-03-03T06:30:47.181Z,11.23
2019-03-03T06:31:47.257Z,11.26
2019-03-03T06:32:47.305Z,11.17
2019-03-03T06:33:47.372Z,11.27
2019-03-03T06:34:47.433Z,11.29
2019-03-03T06:35:47.488Z,11.30
2019-03-03T06:36:47.552Z,11.17
2019-03-03T06:37:47.619Z,11.17
2019-03-03T06:38:47.681Z,11.26
2019-03-03T06:39:47.745Z,11.29
2019-03-03T06:40:47.797Z,11.32
2019-03-03T06:41:47.861Z,11.25
2019-03-03T06:42:47.921Z,11.23
2019-03-03T06:43:48.001Z,11.08
2019-03-03T06:44:48.053Z,11.12
2019-03-03T06:45:48.110Z,11.08
2019-03-03T06:46:48.169Z,11.14
2019-03-03T06:47:48.233Z,11.15
2019-03-03T06:48:48.293Z,11.05
2019-03-03T06:49:48.533Z,11.04
2019-03-03T06:50:48.417Z,11.02
2019-03-03T06:51:48.482Z,10.93
2019-03-03T06:52:48.542Z,10.97
2019-03-03T06:53:48.605Z,10.92
2019-03-03T06:54:48.674Z,10.94
2019-03-03T06:55:48.738Z,10.90
2019-03-03T06:56:48.794Z,10.89
2019-03-03T06:57:48.857Z,10.90
2019-03-03T06:58:48.914Z,10.96
2019-03-03T06:59:48.982Z,10.90
2019-03-03T07:00:49.046Z,10.93
2019-03-03T07:01:49.098Z,10.93
2019-03-03T07:02:49.162Z,10.96
2019-03-03T07:03:49.222Z,10.93
2019-03-03T07:04:49.302Z,10.93
2019-03-03T07:05:49.346Z,10.93
2019-03-03T07:06:49.410Z,10.97
2019-03-03T07:07:49.470Z,10.90
2019-03-03T07:08:49.534Z,10.92
2019-03-03T07:09:49.606Z,10.97
2019-03-03T07:10:49.667Z,10.94
2019-03-03T07:11:49.719Z,10.94
2019-03-03T07:12:49.783Z,11.05
2019-03-03T07:13:49.842Z,11.05
2019-03-03T07:14:49.911Z,11.10
2019-03-03T07:15:49.974Z,11.08
2019-03-03T07:16:50.027Z,11.10
2019-03-03T07:17:50.092Z,11.15
2019-03-03T07:18:50.151Z,11.05
2019-03-03T07:19:50.547Z,11.14
2019-03-03T07:20:50.275Z,11.22
2019-03-03T07:21:50.339Z,11.22
2019-03-03T07:22:50.400Z,11.22
2019-03-03T07:23:50.463Z,11.14
2019-03-03T07:24:50.523Z,11.25
2019-03-03T07:25:50.639Z,11.25
2019-03-03T07:26:50.650Z,11.26
2019-03-03T07:27:50.713Z,11.35
2019-03-03T07:28:50.771Z,11.29
2019-03-03T07:29:50.835Z,11.29
2019-03-03T07:30:50.903Z,11.25
2019-03-03T07:31:50.963Z,11.33
2019-03-03T07:32:51.020Z,11.29
2019-03-03T07:33:51.088Z,11.23
2019-03-03T07:34:51.143Z,11.32
2019-03-03T07:35:51.295Z,11.32
2019-03-03T07:36:51.268Z,11.30
2019-03-03T07:37:51.328Z,11.29
2019-03-03T07:38:51.392Z,11.35
2019-03-03T07:39:53.395Z,11.32
2019-03-03T07:40:51.525Z,11.35
2019-03-03T07:41:51.585Z,11.41
2019-03-03T07:42:51.640Z,11.44
2019-03-03T07:43:51.700Z,11.37
2019-03-03T07:44:51.764Z,11.41
2019-03-03T07:45:51.836Z,11.43
2019-03-03T07:46:51.896Z,11.45
2019-03-03T07:47:51.948Z,11.45
2019-03-03T07:48:52.012Z,11.48
2019-03-03T07:49:52.076Z,11.59
2019-03-03T07:50:52.488Z,11.54
2019-03-03T07:51:52.196Z,11.54
2019-03-03T07:52:52.261Z,11.55
2019-03-03T07:53:52.325Z,11.54
2019-03-03T07:54:52.397Z,11.59
2019-03-03T07:55:52.445Z,11.51
2019-03-03T07:56:52.854Z,11.63
2019-03-03T07:57:52.573Z,11.51
2019-03-03T07:58:52.633Z,11.55
2019-03-03T07:59:52.693Z,11.68
2019-03-03T08:00:52.757Z,11.69
2019-03-03T08:01:52.821Z,11.70
2019-03-03T08:02:52.909Z,11.68
2019-03-03T08:03:52.942Z,11.72
2019-03-03T08:04:53.005Z,11.73
2019-03-03T08:05:53.069Z,11.78
2019-03-03T08:06:53.129Z,11.87
2019-03-03T08:07:53.377Z,11.77
2019-03-03T08:08:53.254Z,11.87
2019-03-03T08:09:53.319Z,11.95
2019-03-03T08:10:53.379Z,12.03
2019-03-03T08:11:53.442Z,12.00
2019-03-03T08:12:53.514Z,11.94
2019-03-03T08:13:53.578Z,12.00
2019-03-03T08:14:53.626Z,12.09
2019-03-03T08:15:53.694Z,12.13
2019-03-03T08:16:53.753Z,12.17
2019-03-03T08:17:53.822Z,12.15
2019-03-03T08:18:53.882Z,12.24
2019-03-03T08:19:53.938Z,12.25
